| time (UTC) | temp F | wind direction | speed MPH | gust MPH | rain 1hr in | rain 24hr in | rain mn in | humidity % | barometer mb |
| 20260509075012 | 43 | 172 | 1.0 | 2.0 | 0.00 | 0.00 | 0.00 | 70 | 1000.7 |
| 20260509074036 | 43 | 169 | 1.0 | 2.0 | 0.00 | 0.00 | 0.00 | 68 | 1000.7 |
| 20260509072021 | 42 | 169 | 0.0 | 0.0 | 0.00 | 0.00 | 0.00 | 69 | 1000.7 |
| 20260509071035 | 42 | 169 | 0.0 | 0.0 | 0.00 | 0.00 | 0.00 | 69 | 1000.8 |
| 20260509070013 | 43 | 169 | 0.0 | 0.0 | 0.00 | 0.00 | 0.00 | 69 | 1001.1 |
| 20260509065019 | 43 | 161 | 0.0 | 0.0 | 0.00 | 0.00 | 0.00 | 70 | 1001.2 |
| 20260509064020 | 43 | 162 | 0.0 | 0.0 | 0.00 | 0.00 | 0.00 | 70 | 1001.0 |
| 20260509063044 | 43 | 162 | 0.0 | 0.0 | 0.00 | 0.00 | 0.00 | 69 | 1001.5 |
| 20260509061008 | 44 | 160 | 0.0 | 0.0 | 0.00 | 0.00 | 0.00 | 67 | 1001.3 |
| 20260509060014 | 44 | 159 | 2.0 | 2.0 | 0.00 | 0.00 | 0.00 | 66 | 1001.7 |
| 20260509054013 | 46 | 150 | 2.0 | 2.0 | 0.00 | 0.00 | 0.00 | 64 | 1001.6 |
| 20260509053011 | 46 | 161 | 0.0 | 0.0 | 0.00 | 0.00 | 0.00 | 64 | 1001.9 |
| 20260509052032 | 47 | 158 | 2.0 | 2.0 | 0.00 | 0.00 | 0.00 | 62 | 1002.0 |
| 20260509051023 | 48 | 152 | 1.0 | 2.0 | 0.00 | 0.00 | 0.00 | 62 | 1002.3 |
| 20260509050013 | 48 | 154 | 3.0 | 4.0 | 0.00 | 0.00 | 0.00 | 59 | 1002.2 |
| 20260509045018 | 48 | 144 | 2.0 | 2.0 | 0.00 | 0.00 | 0.00 | 61 | 1002.2 |
| 20260509044019 | 48 | 144 | 1.0 | 2.0 | 0.00 | 0.00 | 0.00 | 60 | 1002.2 |
| 20260509043044 | 47 | 142 | 3.0 | 4.0 | 0.00 | 0.00 | 0.00 | 61 | 1002.6 |
| 20260509042006 | 47 | 164 | 1.0 | 2.0 | 0.00 | 0.00 | 0.00 | 62 | 1002.5 |
| 20260509041016 | 47 | 158 | 1.0 | 2.0 | 0.00 | 0.00 | 0.00 | 61 | 1002.5 |
| 20260509040019 | 47 | 155 | 0.0 | 0.0 | 0.00 | 0.00 | 0.04 | 62 | 1002.3 |
| 20260509035020 | 47 | 154 | 0.0 | 0.0 | 0.00 | 0.00 | 0.04 | 61 | 1002.6 |
| 20260509034011 | 46 | 158 | 2.0 | 2.0 | 0.00 | 0.00 | 0.04 | 63 | 1002.5 |
| 20260509033009 | 47 | 152 | 0.0 | 0.0 | 0.00 | 0.00 | 0.04 | 63 | 1002.6 |
| 20260509032028 | 47 | 158 | 0.0 | 0.0 | 0.00 | 0.00 | 0.04 | 63 | 1002.2 |
| 20260509031017 | 47 | 158 | 1.0 | 2.0 | 0.00 | 0.00 | 0.04 | 62 | 1002.5 |
| 20260509030028 | 48 | 162 | 0.0 | 0.0 | 0.00 | 0.00 | 0.04 | 60 | 1002.6 |
| 20260509025035 | 48 | 200 | 4.0 | 5.0 | 0.00 | 0.00 | 0.04 | 61 | 1002.6 |
| 20260509024018 | 48 | 164 | 2.0 | 3.0 | 0.00 | 0.00 | 0.04 | 63 | 1002.6 |
| 20260509023031 | 47 | 158 | 2.0 | 2.0 | 0.00 | 0.00 | 0.04 | 63 | 1002.6 |
| 20260509022004 | 45 | 141 | 1.0 | 2.0 | 0.00 | 0.00 | 0.04 | 66 | 1002.7 |
| 20260509021032 | 45 | 177 | 0.0 | 0.0 | 0.00 | 0.00 | 0.04 | 69 | 1002.6 |
| 20260509020021 | 45 | 165 | 0.0 | 0.0 | 0.00 | 0.00 | 0.04 | 69 | 1002.7 |
| 20260509015025 | 45 | 154 | 0.0 | 0.0 | 0.00 | 0.00 | 0.04 | 67 | 1002.8 |
| 20260509014002 | 44 | 153 | 1.0 | 2.0 | 0.00 | 0.00 | 0.04 | 68 | 1002.8 |
| 20260509013044 | 45 | 153 | 1.0 | 2.0 | 0.00 | 0.00 | 0.04 | 69 | 1002.7 |
| 20260509012035 | 44 | 153 | 0.0 | 0.0 | 0.00 | 0.00 | 0.04 | 69 | 1002.4 |
| 20260509011008 | 44 | 153 | 0.0 | 0.0 | 0.00 | 0.00 | 0.04 | 71 | 1002.4 |
| 20260509010028 | 45 | 153 | 1.0 | 2.0 | 0.00 | 0.00 | 0.04 | 68 | 1002.4 |
| 20260509005027 | 46 | 153 | 1.0 | 2.0 | 0.00 | 0.00 | 0.04 | 67 | 1001.6 |
| 20260509004014 | 47 | 153 | 1.0 | 2.0 | 0.00 | 0.00 | 0.04 | 66 | 1002.0 |
| 20260509003031 | 48 | 152 | 1.0 | 2.0 | 0.00 | 0.00 | 0.04 | 64 | 1001.7 |
| 20260509002006 | 48 | 151 | 0.0 | 0.0 | 0.00 | 0.00 | 0.04 | 62 | 1001.6 |
| 20260509001009 | 49 | 148 | 1.0 | 2.0 | 0.00 | 0.00 | 0.04 | 59 | 1001.7 |
| 20260509000020 | 50 | 140 | 1.0 | 2.0 | 0.00 | 0.00 | 0.04 | 58 | 1001.5 |
| 20260508235001 | 50 | 140 | 0.0 | 0.0 | 0.00 | 0.00 | 0.04 | 56 | 1001.8 |
| 20260508234013 | 51 | 160 | 1.0 | 2.0 | 0.00 | 0.00 | 0.04 | 55 | 1001.6 |
| 20260508233037 | 51 | 177 | 0.0 | 0.0 | 0.00 | 0.00 | 0.04 | 55 | 1001.5 |
| 20260508232019 | 51 | 158 | 0.0 | 0.0 | 0.00 | 0.00 | 0.04 | 51 | 1001.2 |
| 20260508230035 | 54 | 122 | 1.0 | 2.0 | 0.00 | 0.00 | 0.04 | 45 | 1001.5 |
| 20260508224010 | 54 | 134 | 0.0 | 0.0 | 0.00 | 0.00 | 0.04 | 41 | 1001.5 |
| 20260508223032 | 54 | 178 | 0.0 | 0.0 | 0.00 | 0.00 | 0.04 | 46 | 1001.4 |
| 20260508222023 | 54 | 129 | 1.0 | 2.0 | 0.00 | 0.00 | 0.04 | 48 | 1001.4 |
| 20260508221035 | 54 | 142 | 1.0 | 2.0 | 0.00 | 0.00 | 0.04 | 44 | 1001.7 |
| 20260508220042 | 54 | 168 | 1.0 | 2.0 | 0.00 | 0.00 | 0.04 | 49 | 1001.5 |
| 20260508215036 | 54 | 156 | 0.0 | 0.0 | 0.00 | 0.00 | 0.04 | 47 | 1001.5 |
| 20260508214011 | 55 | 185 | 1.0 | 2.0 | 0.00 | 0.00 | 0.04 | 47 | 1001.5 |
| 20260508213033 | 54 | 102 | 2.0 | 3.0 | 0.00 | 0.00 | 0.04 | 50 | 1001.7 |
| 20260508212012 | 56 | 93 | 2.0 | 3.0 | 0.00 | 0.00 | 0.04 | 44 | 1001.8 |
| 20260508210039 | 56 | 192 | 0.0 | 0.0 | 0.00 | 0.00 | 0.04 | 44 | 1001.7 |
| 20260508205006 | 58 | 190 | 0.0 | 0.0 | 0.00 | 0.00 | 0.04 | 44 | 1002.1 |
| 20260508204003 | 57 | 270 | 3.0 | 4.0 | 0.00 | 0.00 | 0.04 | 44 | 1001.9 |
| 20260508203019 | 56 | 241 | 3.0 | 4.0 | 0.00 | 0.00 | 0.04 | 40 | 1002.1 |
| 20260508202016 | 55 | 188 | 1.0 | 2.0 | 0.00 | 0.00 | 0.04 | 50 | 1002.4 |
| 20260508201003 | 57 | 327 | 2.0 | 3.0 | 0.00 | 0.00 | 0.04 | 45 | 1002.3 |
| 20260508200027 | 58 | 198 | 1.0 | 2.0 | 0.00 | 0.00 | 0.04 | 43 | 1002.5 |
| 20260508195019 | 54 | 198 | 0.0 | 0.0 | 0.00 | 0.00 | 0.04 | 51 | 1002.5 |
| 20260508194035 | 58 | 268 | 2.0 | 3.0 | 0.00 | 0.00 | 0.04 | 43 | 1002.5 |
| 20260508192018 | 53 | 185 | 2.0 | 2.0 | 0.00 | 0.00 | 0.04 | 51 | 1003.0 |
| 20260508191004 | 55 | 185 | 0.0 | 0.0 | 0.00 | 0.00 | 0.04 | 58 | 1002.9 |
| 20260508190032 | 53 | 213 | 2.0 | 3.0 | 0.00 | 0.00 | 0.04 | 49 | 1003.1 |
| 20260508184018 | 53 | 229 | 2.0 | 2.0 | 0.00 | 0.00 | 0.04 | 57 | 1003.0 |
| 20260508182013 | 54 | 63 | 3.0 | 4.0 | 0.00 | 0.00 | 0.04 | 53 | 1003.1 |
| 20260508181007 | 54 | 353 | 3.0 | 4.0 | 0.00 | 0.00 | 0.04 | 62 | 1003.0 |
| 20260508180021 | 51 | 173 | 3.0 | 3.0 | 0.00 | 0.00 | 0.04 | 61 | 1003.3 |
| 20260508175042 | 51 | 231 | 3.0 | 3.0 | 0.00 | 0.00 | 0.04 | 65 | 1003.5 |
| 20260508174041 | 53 | 157 | 1.0 | 2.0 | 0.00 | 0.00 | 0.04 | 59 | 1003.4 |
| 20260508173006 | 54 | 197 | 2.0 | 3.0 | 0.00 | 0.00 | 0.04 | 71 | 1003.6 |
| 20260508171013 | 51 | 198 | 2.0 | 2.0 | 0.00 | 0.00 | 0.04 | 62 | 1003.8 |
| 20260508170017 | 52 | 223 | 3.0 | 4.0 | 0.00 | 0.00 | 0.04 | 64 | 1003.6 |
| 20260508164031 | 48 | 51 | 2.0 | 3.0 | 0.00 | 0.00 | 0.04 | 69 | 1003.9 |
| 20260508163027 | 51 | 179 | 1.0 | 2.0 | 0.00 | 0.00 | 0.04 | 72 | 1004.1 |
| 20260508162032 | 48 | 162 | 3.0 | 4.0 | 0.00 | 0.00 | 0.04 | 70 | 1004.1 |
| 20260508161006 | 48 | 226 | 2.0 | 3.0 | 0.00 | 0.00 | 0.04 | 75 | 1004.2 |
| 20260508160021 | 48 | 195 | 2.0 | 2.0 | 0.00 | 0.00 | 0.04 | 75 | 1004.2 |
| 20260508155013 | 49 | 208 | 2.0 | 2.0 | 0.00 | 0.00 | 0.04 | 75 | 1004.0 |
| 20260508153017 | 50 | 160 | 6.0 | 7.0 | 0.00 | 0.00 | 0.04 | 74 | 1003.9 |
| 20260508152012 | 47 | 85 | 2.0 | 2.0 | 0.00 | 0.00 | 0.04 | 76 | 1004.2 |
| 20260508151024 | 49 | 196 | 1.0 | 3.0 | 0.00 | 0.00 | 0.04 | 79 | 1004.0 |
| 20260508150036 | 48 | 205 | 2.0 | 3.0 | 0.00 | 0.00 | 0.04 | 79 | 1003.8 |
| 20260508145025 | 48 | 126 | 1.0 | 3.0 | 0.00 | 0.00 | 0.04 | 80 | 1004.0 |
| 20260508144030 | 45 | 186 | 1.0 | 2.0 | 0.00 | 0.00 | 0.04 | 80 | 1004.1 |
| 20260508143033 | 46 | 192 | 2.0 | 2.0 | 0.00 | 0.00 | 0.04 | 81 | 1004.3 |
| 20260508141028 | 45 | 228 | 4.0 | 5.0 | 0.00 | 0.00 | 0.04 | 85 | 1004.2 |
| 20260508140037 | 42 | 182 | 0.0 | 0.0 | 0.00 | 0.00 | 0.04 | 88 | 1004.1 |
| 20260508135041 | 42 | 191 | 1.0 | 2.0 | 0.00 | 0.00 | 0.04 | 89 | 1003.9 |
| 20260508134016 | 42 | 174 | 1.0 | 2.0 | 0.00 | 0.00 | 0.04 | 89 | 1004.4 |
| 20260508133005 | 43 | 169 | 0.0 | 0.0 | 0.00 | 0.00 | 0.04 | 91 | 1004.0 |
| 20260508132008 | 42 | 205 | 1.0 | 2.0 | 0.00 | 0.00 | 0.04 | 91 | 1004.1 |
| 20260508131005 | 41 | 173 | 0.0 | 0.0 | 0.05 | 0.00 | 0.04 | 91 | 1004.4 |
| 20260508130005 | 41 | 174 | 1.0 | 2.0 | 0.00 | 0.00 | 0.03 | 91 | 1004.1 |
| 20260508125014 | 41 | 212 | 1.0 | 2.0 | 0.07 | 0.00 | 0.03 | 91 | 1004.1 |
| 20260508124041 | 41 | 184 | 0.0 | 0.0 | 0.05 | 0.00 | 0.02 | 88 | 1004.3 |
| 20260508122034 | 42 | 183 | 1.0 | 2.0 | 0.00 | 0.00 | 0.01 | 86 | 1003.6 |
| 20260508121005 | 42 | 216 | 2.0 | 3.0 | 0.07 | 0.00 | 0.01 | 87 | 1003.5 |
| 20260508115012 | 42 | 168 | 0.0 | 0.0 | 0.00 | 0.00 | 0.00 | 89 | 1003.2 |
| 20260508113002 | 42 | 215 | 2.0 | 3.0 | 0.00 | 0.00 | 0.00 | 90 | 1003.0 |
| 20260508111012 | 41 | 163 | 0.0 | 0.0 | 0.00 | 0.00 | 0.00 | 90 | 1002.7 |
| 20260508110046 | 41 | 167 | 0.0 | 0.0 | 0.00 | 0.00 | 0.00 | 91 | 1002.5 |
| 20260508105030 | 41 | 162 | 0.0 | 0.0 | 0.00 | 0.00 | 0.00 | 92 | 1002.7 |
| 20260508104017 | 40 | 162 | 0.0 | 0.0 | 0.00 | 0.00 | 0.00 | 93 | 1002.5 |
| 20260508103013 | 40 | 154 | 0.0 | 0.0 | 0.00 | 0.00 | 0.00 | 93 | 1002.5 |
| 20260508102016 | 40 | 164 | 1.0 | 2.0 | 0.00 | 0.00 | 0.00 | 93 | 1002.6 |
| 20260508101027 | 40 | 161 | 1.0 | 2.0 | 0.00 | 0.00 | 0.00 | 94 | 1002.7 |
| 20260508100010 | 39 | 120 | 2.0 | 3.0 | 0.00 | 0.00 | 0.00 | 95 | 1003.0 |
| 20260508095021 | 39 | 195 | 2.0 | 3.0 | 0.00 | 0.00 | 0.00 | 95 | 1003.0 |
| 20260508094023 | 39 | 172 | 1.0 | 2.0 | 0.00 | 0.00 | 0.00 | 96 | 1003.2 |
| 20260508093010 | 39 | 179 | 1.0 | 2.0 | 0.00 | 0.00 | 0.00 | 97 | 1003.0 |
| 20260508092013 | 38 | 160 | 0.0 | 0.0 | 0.00 | 0.00 | 0.00 | 97 | 1003.3 |
| 20260508091045 | 38 | 172 | 2.0 | 3.0 | 0.00 | 0.00 | 0.00 | 97 | 1003.6 |
| 20260508090028 | 38 | 158 | 1.0 | 2.0 | 0.00 | 0.00 | 0.00 | 97 | 1003.2 |
| 20260508085011 | 38 | 155 | 1.0 | 2.0 | 0.00 | 0.00 | 0.00 | 97 | 1003.2 |
| 20260508084013 | 38 | 159 | 1.0 | 2.0 | 0.00 | 0.00 | 0.00 | 97 | 1003.2 |
| 20260508083045 | 38 | 167 | 1.0 | 2.0 | 0.00 | 0.00 | 0.00 | 97 | 1003.0 |
| 20260508082013 | 38 | 170 | 0.0 | 0.0 | 0.00 | 0.00 | 0.00 | 97 | 1003.1 |
| 20260508081045 | 38 | 168 | 0.0 | 0.0 | 0.00 | 0.00 | 0.00 | 97 | 1003.1 |
| 20260508080002 | 38 | 165 | 1.0 | 2.0 | 0.00 | 0.00 | 0.00 | 97 | 1003.3 |